Time;durP1;ratioP1;P1;durP2;ratioP2;P2;SDS_P1;SDS_P2;PMS_P1;PMS_P2;Temp;Humidity;BMP_temperature;BMP_pressure;BME280_temperature;BME280_humidity;BME280_pressure;Samples;Min_cycle;Max_cycle;Signal;HPM_P1;HPM_P2
2022/04/12 00:03:21;;;;;;;21.07;9.47;;;;;1.80;96257.00;;;;8280916;28;20305;-67
2022/04/12 00:07:24;;;;;;;22.73;10.37;;;;;1.70;96256.00;;;;8280809;28;20272;-66
2022/04/12 00:11:27;;;;;;;22.67;10.40;;;;;1.80;96253.00;;;;8275103;28;20304;-68
2022/04/12 00:15:32;;;;;;;17.97;9.83;;;;;1.70;96255.00;;;;8280391;28;20257;-68
2022/04/12 00:19:35;;;;;;;22.17;9.90;;;;;1.60;96244.00;;;;8280535;28;20345;-68
2022/04/12 00:23:39;;;;;;;19.57;10.27;;;;;1.50;96241.00;;;;8280466;28;20230;-67
2022/04/12 00:27:42;;;;;;;22.53;10.43;;;;;1.50;96231.00;;;;8286214;28;20978;-67
2022/04/12 00:31:47;;;;;;;20.50;9.33;;;;;1.50;96233.00;;;;8287096;28;20777;-67
2022/04/12 00:35:50;;;;;;;22.23;10.10;;;;;1.50;96228.00;;;;8285423;28;20293;-67
2022/04/12 00:39:54;;;;;;;21.33;10.00;;;;;1.50;96229.00;;;;8286263;28;20218;-67
2022/04/12 00:43:59;;;;;;;25.20;10.87;;;;;1.50;96216.00;;;;8286843;28;20301;-66
2022/04/12 00:48:03;;;;;;;20.10;10.13;;;;;1.50;96237.00;;;;8285944;28;20237;-67
2022/04/12 00:52:08;;;;;;;18.73;9.70;;;;;1.50;96240.00;;;;8285662;28;20225;-68
2022/04/12 00:56:11;;;;;;;19.37;10.10;;;;;1.60;96235.00;;;;8286225;28;20858;-68
2022/04/12 01:00:17;;;;;;;22.47;8.77;;;;;1.60;96236.00;;;;8288473;28;20217;-68
2022/04/12 01:04:22;;;;;;;18.87;9.30;;;;;1.60;96228.00;;;;8284829;28;20725;-67
2022/04/12 01:08:25;;;;;;;22.10;10.10;;;;;1.60;96231.00;;;;8285831;28;20347;-67
2022/04/12 01:12:30;;;;;;;21.07;9.90;;;;;1.60;96229.00;;;;8285788;28;20232;-68
2022/04/12 01:16:33;;;;;;;24.10;9.93;;;;;1.60;96237.00;;;;8285845;28;20641;-68
2022/04/12 01:20:38;;;;;;;21.30;9.67;;;;;1.60;96218.00;;;;8284648;28;20267;-68
2022/04/12 01:24:43;;;;;;;20.80;10.03;;;;;1.60;96206.00;;;;8284217;28;20237;-68
2022/04/12 01:28:46;;;;;;;21.10;9.93;;;;;1.50;96201.00;;;;8285416;28;20306;-68
2022/04/12 01:32:50;;;;;;;18.57;10.37;;;;;1.50;96197.00;;;;8284399;28;20241;-68
2022/04/12 01:36:53;;;;;;;21.10;10.23;;;;;1.50;96192.00;;;;8284582;28;21156;-68
2022/04/12 01:40:57;;;;;;;23.87;10.90;;;;;1.70;96196.00;;;;8285158;28;20233;-68
2022/04/12 01:45:00;;;;;;;20.83;9.03;;;;;1.80;96200.00;;;;8285626;28;20242;-69
2022/04/12 01:49:03;;;;;;;17.77;9.70;;;;;1.90;96209.00;;;;8284042;28;20238;-69
2022/04/12 01:53:07;;;;;;;22.23;9.27;;;;;2.00;96209.00;;;;8284791;28;20229;-69
2022/04/12 01:57:14;;;;;;;15.27;8.73;;;;;1.90;96212.00;;;;8279963;28;20982;-69
2022/04/12 02:01:17;;;;;;;20.83;9.33;;;;;1.90;96209.00;;;;8284738;28;20225;-68
2022/04/12 02:05:21;;;;;;;16.40;8.80;;;;;1.80;96211.00;;;;8276359;28;20249;-67
2022/04/12 02:09:24;;;;;;;14.03;7.87;;;;;1.70;96207.00;;;;8279272;28;20225;-69
2022/04/12 02:13:29;;;;;;;19.30;9.03;;;;;1.70;96211.00;;;;8284578;28;20305;-68
2022/04/12 02:17:32;;;;;;;14.03;8.20;;;;;1.70;96203.00;;;;8284397;28;20226;-68
2022/04/12 02:21:35;;;;;;;17.17;8.97;;;;;1.70;96211.00;;;;8283885;28;20228;-68
2022/04/12 02:25:38;;;;;;;14.50;8.33;;;;;1.70;96209.00;;;;8281545;28;20229;-69
2022/04/12 02:29:43;;;;;;;19.90;8.47;;;;;1.70;96202.00;;;;8284675;28;20268;-68
2022/04/12 02:33:47;;;;;;;16.90;8.83;;;;;1.70;96210.00;;;;8282644;28;20229;-67
2022/04/12 02:37:50;;;;;;;16.23;8.53;;;;;1.60;96202.00;;;;8283062;28;20316;-68
2022/04/12 02:41:53;;;;;;;13.77;7.47;;;;;1.60;96193.00;;;;8281434;28;20226;-69
2022/04/12 02:45:58;;;;;;;17.87;8.47;;;;;1.50;96189.00;;;;8283385;28;20313;-68
2022/04/12 02:50:01;;;;;;;16.47;8.10;;;;;1.40;96198.00;;;;8282213;28;20256;-68
2022/04/12 02:54:05;;;;;;;16.40;8.40;;;;;1.40;96206.00;;;;8281077;28;20240;-68
2022/04/12 02:58:08;;;;;;;14.53;8.07;;;;;1.30;96207.00;;;;8288943;28;20337;-67
2022/04/12 03:02:12;;;;;;;14.40;8.10;;;;;1.30;96206.00;;;;8312995;23;20312;-67
2022/04/12 03:06:17;;;;;;;16.87;7.37;;;;;1.20;96202.00;;;;8306719;28;20225;-66
2022/04/12 03:10:20;;;;;;;21.03;8.83;;;;;1.10;96203.00;;;;8314675;28;20235;-66
2022/04/12 03:14:24;;;;;;;19.17;8.20;;;;;1.20;96208.00;;;;8316466;28;20313;-66
2022/04/12 03:18:28;;;;;;;17.17;8.10;;;;;1.40;96198.00;;;;8316761;28;20240;-67
2022/04/12 03:22:31;;;;;;;19.07;8.23;;;;;1.40;96188.00;;;;8325537;28;20228;-66
2022/04/12 03:26:34;;;;;;;19.50;8.73;;;;;1.50;96187.00;;;;8315681;28;20593;-67
2022/04/12 03:30:38;;;;;;;12.97;7.23;;;;;1.60;96188.00;;;;8324990;28;20225;-66
2022/04/12 03:34:44;;;;;;;15.97;7.60;;;;;1.50;96190.00;;;;8318749;28;20314;-66
2022/04/12 03:38:49;;;;;;;13.53;7.83;;;;;1.30;96201.00;;;;8319585;28;20232;-68
2022/04/12 03:42:52;;;;;;;16.07;7.60;;;;;1.20;96197.00;;;;8315390;28;20228;-67
2022/04/12 03:46:55;;;;;;;14.43;7.63;;;;;1.20;96187.00;;;;8317120;28;20240;-67
2022/04/12 03:50:59;;;;;;;18.50;8.00;;;;;1.00;96198.00;;;;8324354;28;20239;-67
2022/04/12 03:55:04;;;;;;;16.43;8.20;;;;;0.90;96201.00;;;;8318304;28;20235;-67
2022/04/12 03:59:07;;;;;;;11.80;6.83;;;;;0.80;96201.00;;;;8317247;28;20712;-67
2022/04/12 04:03:11;;;;;;;16.03;7.43;;;;;0.70;96196.00;;;;8324044;28;20227;-67
2022/04/12 04:07:16;;;;;;;13.37;7.13;;;;;0.60;96204.00;;;;8322418;28;20235;-68
2022/04/12 04:11:19;;;;;;;12.57;7.17;;;;;0.60;96209.00;;;;8325303;28;20378;-69
2022/04/12 04:15:22;;;;;;;15.23;7.40;;;;;0.60;96210.00;;;;8324478;28;20308;-68
2022/04/12 04:19:26;;;;;;;13.50;6.57;;;;;0.70;96215.00;;;;8317928;28;20606;-67
2022/04/12 04:23:30;;;;;;;10.67;6.90;;;;;0.70;96209.00;;;;8325997;28;20295;-69
2022/04/12 04:27:34;;;;;;;16.90;7.50;;;;;0.60;96205.00;;;;8314795;28;20240;-67
2022/04/12 04:31:37;;;;;;;14.23;7.50;;;;;0.50;96217.00;;;;8316061;28;20223;-68
2022/04/12 04:35:41;;;;;;;10.83;6.93;;;;;0.60;96204.00;;;;8313288;28;20229;-68
2022/04/12 04:39:45;;;;;;;14.10;7.50;;;;;0.60;96231.00;;;;8317173;28;20226;-67
2022/04/12 04:43:49;;;;;;;13.77;7.13;;;;;0.70;96222.00;;;;8318485;28;20271;-68
2022/04/12 04:47:54;;;;;;;13.33;6.83;;;;;0.80;96231.00;;;;8320457;28;20232;-67
2022/04/12 04:51:57;;;;;;;13.23;7.13;;;;;0.80;96228.00;;;;8315114;28;20312;-68
2022/04/12 04:56:02;;;;;;;18.23;7.47;;;;;0.90;96231.00;;;;8314803;28;20337;-68
2022/04/12 05:00:06;;;;;;;12.17;7.00;;;;;0.90;96233.00;;;;8318255;28;20235;-68
2022/04/12 05:04:09;;;;;;;13.63;6.77;;;;;1.00;96231.00;;;;8307114;28;20284;-68
2022/04/12 05:08:12;;;;;;;10.97;6.60;;;;;1.10;96232.00;;;;8319448;28;20233;-68
2022/04/12 05:12:17;;;;;;;15.10;7.17;;;;;1.30;96234.00;;;;8301767;28;20229;-68
2022/04/12 05:16:21;;;;;;;14.43;6.93;;;;;1.50;96229.00;;;;8313770;28;20954;-68
2022/04/12 05:20:26;;;;;;;13.57;7.07;;;;;1.60;96223.00;;;;8307443;28;20264;-68
2022/04/12 05:24:29;;;;;;;16.07;6.60;;;;;1.80;96229.00;;;;8318980;28;20243;-68
2022/04/12 05:28:34;;;;;;;12.13;7.30;;;;;2.00;96235.00;;;;8313262;28;20232;-69
2022/04/12 05:32:38;;;;;;;16.43;6.17;;;;;2.20;96241.00;;;;8317903;28;20337;-67
2022/04/12 05:36:41;;;;;;;16.23;9.83;;;;;2.40;96240.00;;;;8316730;28;20236;-68
2022/04/12 05:40:44;;;;;;;14.60;7.23;;;;;2.60;96240.00;;;;8316634;28;20308;-67
2022/04/12 05:44:49;;;;;;;12.80;7.23;;;;;2.70;96248.00;;;;8317120;28;20231;-68
2022/04/12 05:48:52;;;;;;;11.43;7.10;;;;;2.80;96243.00;;;;8309420;28;20708;-67
2022/04/12 05:52:56;;;;;;;16.73;8.60;;;;;3.10;96250.00;;;;8309188;28;20776;-67
2022/04/12 05:56:59;;;;;;;15.97;8.00;;;;;3.50;96252.00;;;;8316720;28;20312;-66
2022/04/12 06:01:04;;;;;;;13.57;7.60;;;;;4.00;96250.00;;;;8311204;28;20233;-67
2022/04/12 06:05:08;;;;;;;12.47;6.90;;;;;4.40;96244.00;;;;8312500;28;20597;-66
2022/04/12 06:09:11;;;;;;;9.30;5.87;;;;;4.80;96256.00;;;;8319060;28;20321;-67
2022/04/12 06:13:15;;;;;;;10.23;5.73;;;;;5.20;96249.00;;;;8322732;28;20327;-69
2022/04/12 06:17:19;;;;;;;9.53;5.30;;;;;5.60;96245.00;;;;8315791;28;20562;-69
2022/04/12 06:21:23;;;;;;;6.17;4.57;;;;;6.00;96248.00;;;;8308560;28;20234;-68
2022/04/12 06:25:26;;;;;;;8.17;4.83;;;;;6.40;96243.00;;;;8305913;28;20227;-69
2022/04/12 06:29:29;;;;;;;6.60;4.87;;;;;6.80;96265.00;;;;8305957;28;20695;-68
2022/04/12 06:33:34;;;;;;;4.43;4.00;;;;;7.10;96253.00;;;;8302386;28;20234;-69
2022/04/12 06:37:39;;;;;;;5.60;4.27;;;;;7.50;96269.00;;;;8313864;28;20216;-69
2022/04/12 06:41:43;;;;;;;8.63;4.20;;;;;7.80;96280.00;;;;8302809;28;20279;-68
2022/04/12 06:45:46;;;;;;;5.87;4.03;;;;;8.10;96268.00;;;;8312326;28;20249;-66
2022/04/12 06:49:51;;;;;;;7.47;4.20;;;;;8.30;96271.00;;;;8313445;28;20271;-67
2022/04/12 06:53:54;;;;;;;7.87;4.30;;;;;8.60;96288.00;;;;8301753;28;20315;-68
2022/04/12 06:57:59;;;;;;;5.73;4.00;;;;;8.90;96290.00;;;;8307433;28;20271;-70
2022/04/12 07:02:03;;;;;;;7.00;3.87;;;;;9.10;96292.00;;;;8311191;28;20291;-67
2022/04/12 07:06:08;;;;;;;6.17;3.63;;;;;9.10;96282.00;;;;8310223;28;20277;-68
2022/04/12 07:10:13;;;;;;;6.37;3.90;;;;;9.20;96289.00;;;;8309105;28;20229;-70
2022/04/12 07:14:16;;;;;;;6.03;3.40;;;;;9.40;96294.00;;;;8310942;28;20244;-68
2022/04/12 07:18:19;;;;;;;6.50;3.73;;;;;9.60;96302.00;;;;8306690;28;20237;-69
2022/04/12 07:22:24;;;;;;;6.27;4.03;;;;;9.80;96294.00;;;;8308299;28;20578;-69
2022/04/12 07:26:28;;;;;;;3.63;3.27;;;;;10.20;96302.00;;;;8310831;28;20244;-70
2022/04/12 07:30:31;;;;;;;6.53;3.87;;;;;10.60;96300.00;;;;8313685;28;20233;-68
2022/04/12 07:34:52;;;;;;;6.83;3.53;;;;;10.90;96303.00;;;;8316074;28;20225;-67
2022/04/12 07:38:56;;;;;;;8.00;3.70;;;;;11.40;96298.00;;;;8321697;28;20772;-67
2022/04/12 07:43:00;;;;;;;5.57;3.60;;;;;12.00;96313.00;;;;8318434;28;20260;-68
2022/04/12 07:47:04;;;;;;;6.50;3.60;;;;;12.80;96321.00;;;;8320287;28;20229;-68
2022/04/12 07:51:07;;;;;;;8.43;4.25;;;;;13.70;96311.00;;;;8320074;28;20645;-70
2022/04/12 07:55:12;;;;;;;4.43;3.60;;;;;14.50;96309.00;;;;8318410;28;20247;-69
2022/04/12 07:59:15;;;;;;;8.43;4.10;;;;;15.10;96317.00;;;;8319214;28;20224;-69
2022/04/12 08:03:21;;;;;;;7.43;4.32;;;;;15.60;96323.00;;;;8318476;28;20589;-68
2022/04/12 08:07:24;;;;;;;5.45;3.60;;;;;16.20;96323.00;;;;8320100;28;20269;-67
2022/04/12 08:11:30;;;;;;;8.10;4.38;;;;;16.50;96319.00;;;;8318688;28;20232;-67
2022/04/12 08:15:33;;;;;;;7.07;3.20;;;;;16.60;96315.00;;;;8307519;28;20234;-67
2022/04/12 08:19:38;;;;;;;5.82;3.40;;;;;16.30;96310.00;;;;8313308;28;20673;-68
2022/04/12 08:23:41;;;;;;;6.13;3.47;;;;;16.30;96308.00;;;;8314148;28;20231;-67
2022/04/12 08:27:45;;;;;;;3.47;3.15;;;;;16.70;96308.00;;;;8319117;28;20228;-65
2022/04/12 08:31:49;;;;;;;4.45;3.88;;;;;16.50;96305.00;;;;8310673;28;20229;-67
2022/04/12 08:35:52;;;;;;;3.60;2.80;;;;;16.60;96296.00;;;;8319081;28;20680;-68
2022/04/12 08:39:55;;;;;;;6.80;2.85;;;;;16.80;96299.00;;;;8318555;28;20331;-67
2022/04/12 08:44:00;;;;;;;5.72;2.95;;;;;17.10;96297.00;;;;8310343;28;20244;-66
2022/04/12 08:48:06;;;;;;;6.25;2.88;;;;;17.20;96300.00;;;;8316105;28;20237;-66
2022/04/12 08:52:11;;;;;;;10.25;2.65;;;;;17.20;96297.00;;;;8314584;28;20233;-67
2022/04/12 08:56:14;;;;;;;4.40;3.00;;;;;17.30;96307.00;;;;8317892;28;20231;-66
2022/04/12 09:00:19;;;;;;;3.08;2.75;;;;;17.40;96294.00;;;;8312758;28;20253;-67
2022/04/12 09:04:22;;;;;;;4.55;3.20;;;;;17.70;96299.00;;;;8311189;28;20233;-68
2022/04/12 09:08:27;;;;;;;3.05;2.50;;;;;18.10;96290.00;;;;8312778;28;20720;-66
2022/04/12 09:12:33;;;;;;;5.18;2.67;;;;;18.20;96293.00;;;;8317813;28;20227;-69
2022/04/12 09:16:43;;;;;;;2.80;2.58;;;;;18.40;96295.00;;;;8314122;28;20225;-67
2022/04/12 09:20:53;;;;;;;6.13;2.88;;;;;18.80;96298.00;;;;8316494;28;20709;-69
2022/04/12 09:24:59;;;;;;;4.47;3.03;;;;;19.20;96292.00;;;;8313014;28;20304;-67
2022/04/12 09:29:02;;;;;;;5.55;3.20;;;;;19.50;96295.00;;;;8314883;28;20256;-67
2022/04/12 09:33:07;;;;;;;7.10;3.15;;;;;19.70;96283.00;;;;8313065;28;21187;-67
2022/04/12 09:37:22;;;;;;;5.10;3.22;;;;;19.90;96274.00;;;;8315175;28;20227;-67
2022/04/12 09:41:29;;;;;;;4.90;2.90;;;;;20.20;96272.00;;;;8314404;28;20225;-66
2022/04/12 09:45:33;;;;;;;4.70;3.15;;;;;20.30;96276.00;;;;8322194;28;20687;-67
2022/04/12 09:49:47;;;;;;;5.95;3.08;;;;;20.50;96279.00;;;;8316469;28;20243;-68
2022/04/12 09:53:51;;;;;;;3.15;2.60;;;;;20.70;96265.00;;;;8315416;28;20229;-67
2022/04/12 09:57:56;;;;;;;6.65;2.90;;;;;21.00;96259.00;;;;8314911;28;20250;-67
2022/04/12 10:01:59;;;;;;;3.22;2.90;;;;;21.50;96260.00;;;;8308033;28;20229;-67
2022/04/12 10:06:07;;;;;;;4.80;3.20;;;;;21.70;96260.00;;;;8313483;28;20224;-68
2022/04/12 10:10:14;;;;;;;5.72;3.05;;;;;21.90;96258.00;;;;8313154;28;20265;-67
2022/04/12 10:14:19;;;;;;;3.13;2.80;;;;;21.90;96250.00;;;;8315097;28;20234;-67
2022/04/12 10:18:22;;;;;;;3.40;3.10;;;;;21.80;96247.00;;;;8306309;28;20756;-69
2022/04/12 10:22:27;;;;;;;4.75;3.20;;;;;21.80;96242.00;;;;8311787;28;20257;-68
2022/04/12 10:26:31;;;;;;;4.85;4.00;;;;;22.00;96238.00;;;;8315727;28;20214;-69
2022/04/12 10:30:35;;;;;;;3.50;3.20;;;;;22.00;96244.00;;;;8310620;28;20304;-68
2022/04/12 10:35:01;;;;;;;5.47;3.35;;;;;22.10;96243.00;;;;8314927;28;20221;-69
2022/04/12 10:39:12;;;;;;;4.78;3.38;;;;;22.50;96243.00;;;;8314836;28;20316;-69
2022/04/12 10:43:22;;;;;;;4.40;3.30;;;;;22.70;96241.00;;;;8311740;28;21050;-68
2022/04/12 10:47:29;;;;;;;4.72;3.97;;;;;22.60;96231.00;;;;8313858;28;20272;-68
2022/04/12 10:51:40;;;;;;;4.57;4.18;;;;;22.70;96235.00;;;;8317789;28;20224;-68
2022/04/12 10:55:45;;;;;;;6.07;4.32;;;;;22.90;96236.00;;;;8310585;28;20745;-69
2022/04/12 10:59:51;;;;;;;8.20;4.30;;;;;22.70;96213.00;;;;8303605;28;20406;-68
2022/04/12 11:03:56;;;;;;;4.10;3.80;;;;;22.80;96216.00;;;;8310544;28;20247;-70
2022/04/12 11:07:59;;;;;;;8.00;4.65;;;;;23.20;96197.00;;;;8311394;28;20340;-70
2022/04/12 11:12:05;;;;;;;4.72;4.00;;;;;23.50;96196.00;;;;8309740;28;20225;-69
2022/04/12 11:16:09;;;;;;;4.53;4.13;;;;;23.90;96198.00;;;;8327976;28;20235;-70
2022/04/12 11:20:21;;;;;;;7.00;4.80;;;;;23.90;96200.00;;;;8325481;28;20248;-69
2022/04/12 11:24:25;;;;;;;5.43;4.20;;;;;23.30;96189.00;;;;8321340;28;20232;-69
2022/04/12 11:28:30;;;;;;;5.60;4.75;;;;;22.90;96197.00;;;;8314984;28;20797;-69
2022/04/12 11:32:33;;;;;;;11.25;6.03;;;;;22.30;96192.00;;;;8315405;28;20229;-67
2022/04/12 11:36:39;;;;;;;5.80;5.28;;;;;22.10;96195.00;;;;8314464;28;20236;-69
2022/04/12 11:40:44;;;;;;;8.05;5.72;;;;;22.00;96189.00;;;;8313989;28;20225;-69
2022/04/12 11:44:57;;;;;;;8.23;6.22;;;;;22.10;96189.00;;;;8316131;28;20237;-69
2022/04/12 11:49:07;;;;;;;12.25;6.50;;;;;21.60;96195.00;;;;8315114;28;20240;-70
2022/04/12 11:53:17;;;;;;;6.57;5.53;;;;;21.30;96192.00;;;;8314182;28;20713;-70
2022/04/12 11:57:21;;;;;;;7.88;6.32;;;;;20.90;96196.00;;;;8300125;28;20574;-70
2022/04/12 12:01:33;;;;;;;7.50;5.88;;;;;20.80;96194.00;;;;8295747;28;20233;-69
2022/04/12 12:05:36;;;;;;;8.05;6.63;;;;;20.80;96199.00;;;;8316366;28;20217;-70
2022/04/12 12:09:39;;;;;;;8.98;6.47;;;;;20.80;96198.00;;;;8313798;28;20312;-70
2022/04/12 12:13:43;;;;;;;7.32;5.75;;;;;21.10;96196.00;;;;8310640;28;20229;-70
2022/04/12 12:17:49;;;;;;;9.00;6.03;;;;;21.50;96194.00;;;;8311901;28;20709;-69
2022/04/12 12:21:53;;;;;;;13.20;6.30;;;;;21.60;96183.00;;;;8301001;28;20245;-69
2022/04/12 12:25:57;;;;;;;6.68;5.80;;;;;21.70;96186.00;;;;8311438;28;20237;-69
2022/04/12 12:30:02;;;;;;;8.30;6.43;;;;;21.70;96187.00;;;;8320171;28;20328;-68
2022/04/12 12:34:07;;;;;;;8.40;5.65;;;;;21.70;96179.00;;;;8319223;28;20232;-69
2022/04/12 12:38:13;;;;;;;10.52;5.53;;;;;21.80;96168.00;;;;8319981;28;20233;-69
2022/04/12 12:42:16;;;;;;;7.35;5.43;;;;;21.70;96171.00;;;;8320857;28;20259;-70
2022/04/12 12:46:19;;;;;;;9.25;5.03;;;;;21.40;96171.00;;;;8319314;28;20659;-71
2022/04/12 12:50:26;;;;;;;7.60;5.10;;;;;21.20;96164.00;;;;8314270;28;20905;-71
2022/04/12 12:54:29;;;;;;;4.85;4.45;;;;;21.20;96168.00;;;;8314145;28;20316;-71
2022/04/12 12:58:32;;;;;;;4.50;4.10;;;;;21.30;96151.00;;;;8317926;28;20228;-71
2022/04/12 13:02:36;;;;;;;6.03;4.70;;;;;21.30;96149.00;;;;8317255;28;20679;-72
2022/04/12 13:06:41;;;;;;;7.00;4.53;;;;;21.40;96138.00;;;;8320908;28;20305;-71
2022/04/12 13:10:45;;;;;;;4.88;4.13;;;;;21.50;96142.00;;;;8312926;28;20229;-71
2022/04/12 13:14:48;;;;;;;5.13;3.90;;;;;21.60;96142.00;;;;8316610;28;20606;-71
2022/04/12 13:19:03;;;;;;;7.30;4.00;;;;;21.70;96132.00;;;;8317427;28;20251;-68
2022/04/12 13:23:08;;;;;;;6.15;4.22;;;;;21.90;96128.00;;;;8319100;28;20564;-71
2022/04/12 13:27:11;;;;;;;3.95;3.30;;;;;21.90;96125.00;;;;8312995;28;20227;-72
2022/04/12 13:31:14;;;;;;;4.45;3.38;;;;;21.90;96112.00;;;;8310201;28;20324;-70
2022/04/12 13:35:21;;;;;;;3.45;3.10;;;;;22.00;96119.00;;;;8318592;28;20971;-70
2022/04/12 13:39:26;;;;;;;3.70;3.40;;;;;22.20;96118.00;;;;8310549;28;21000;-70
2022/04/12 13:43:29;;;;;;;4.10;2.90;;;;;22.70;96114.00;;;;8316600;28;20334;-70
2022/04/12 13:47:32;;;;;;;4.07;3.38;;;;;23.20;96108.00;;;;8319079;28;20241;-69
2022/04/12 13:51:36;;;;;;;4.00;3.60;;;;;23.60;96114.00;;;;8319113;28;20750;-70
2022/04/12 13:55:40;;;;;;;3.55;3.20;;;;;23.90;96104.00;;;;8317742;28;20745;-70
2022/04/12 13:59:43;;;;;;;3.83;3.42;;;;;24.00;96107.00;;;;8313959;28;20779;-70
2022/04/12 14:03:47;;;;;;;3.80;3.30;;;;;24.10;96108.00;;;;8317216;28;20239;-69
2022/04/12 14:07:51;;;;;;;3.13;2.90;;;;;24.60;96112.00;;;;8318265;28;20260;-70
2022/04/12 14:11:55;;;;;;;3.25;2.95;;;;;25.00;96110.00;;;;8316458;28;20316;-71
2022/04/12 14:15:59;;;;;;;4.10;3.70;;;;;25.00;96110.00;;;;8308058;28;20237;-70
2022/04/12 14:20:07;;;;;;;4.30;3.30;;;;;25.10;96106.00;;;;8311547;28;20217;-70
2022/04/12 14:24:13;;;;;;;3.42;3.13;;;;;25.30;96103.00;;;;8333692;28;20240;-70
2022/04/12 14:28:17;;;;;;;3.33;2.55;;;;;25.60;96113.00;;;;8317357;28;20716;-70
2022/04/12 14:32:21;;;;;;;5.07;3.45;;;;;25.80;96113.00;;;;8316311;28;20229;-70
2022/04/12 14:36:24;;;;;;;3.20;3.00;;;;;25.70;96114.00;;;;8313707;28;20273;-70
2022/04/12 14:40:27;;;;;;;3.25;2.90;;;;;25.70;96115.00;;;;8315962;28;20260;-70
2022/04/12 14:44:32;;;;;;;3.55;2.70;;;;;25.80;96104.00;;;;8305852;28;20308;-70
2022/04/12 14:48:35;;;;;;;3.13;2.92;;;;;25.90;96106.00;;;;8316622;28;20237;-69
2022/04/12 14:52:38;;;;;;;4.65;3.65;;;;;25.60;96113.00;;;;8309851;28;20221;-69
2022/04/12 14:56:41;;;;;;;4.32;3.03;;;;;25.60;96099.00;;;;8313021;28;20237;-69
2022/04/12 15:00:46;;;;;;;3.55;3.15;;;;;25.50;96109.00;;;;8315534;28;20225;-67
2022/04/12 15:04:50;;;;;;;4.32;3.42;;;;;24.90;96106.00;;;;8315668;28;20314;-69
2022/04/12 15:08:53;;;;;;;6.07;5.18;;;;;24.80;96111.00;;;;8316490;28;20233;-67
2022/04/12 15:12:56;;;;;;;5.43;3.97;;;;;24.90;96095.00;;;;8316134;28;20241;-68
2022/04/12 15:17:02;;;;;;;4.00;3.55;;;;;25.00;96095.00;;;;8315463;28;20228;-69
2022/04/12 15:21:06;;;;;;;7.13;3.80;;;;;25.10;96095.00;;;;8312417;28;20824;-68
2022/04/12 15:25:09;;;;;;;3.78;3.30;;;;;25.10;96093.00;;;;8328231;28;20220;-69
2022/04/12 15:29:13;;;;;;;2.83;2.60;;;;;25.00;96097.00;;;;8315304;28;20228;-70
2022/04/12 15:33:17;;;;;;;3.38;2.88;;;;;25.00;96093.00;;;;8313948;28;20236;-69
2022/04/12 15:37:20;;;;;;;3.30;2.53;;;;;25.00;96100.00;;;;8317156;28;20693;-70
2022/04/12 15:41:23;;;;;;;5.25;3.00;;;;;24.90;96094.00;;;;8319705;28;20304;-69
2022/04/12 15:45:27;;;;;;;4.22;3.42;;;;;24.80;96088.00;;;;8319763;28;20307;-68
2022/04/12 15:49:31;;;;;;;7.07;2.90;;;;;24.80;96089.00;;;;8314628;28;20275;-69
2022/04/12 15:53:38;;;;;;;4.63;3.00;;;;;24.80;96085.00;;;;8320145;28;20286;-69
2022/04/12 15:57:41;;;;;;;5.43;2.72;;;;;24.90;96093.00;;;;8314759;28;20232;-67
2022/04/12 16:01:44;;;;;;;8.75;2.70;;;;;24.90;96096.00;;;;8323267;28;20255;-68
2022/04/12 16:05:49;;;;;;;4.90;2.70;;;;;24.90;96094.00;;;;8317785;28;20225;-68
2022/04/12 16:09:52;;;;;;;5.03;2.65;;;;;24.80;96089.00;;;;8317029;28;20804;-68
2022/04/12 16:13:55;;;;;;;2.60;2.40;;;;;24.60;96094.00;;;;8322704;28;20712;-68
2022/04/12 16:17:58;;;;;;;3.67;2.50;;;;;24.40;96091.00;;;;8322107;28;20233;-68
2022/04/12 16:22:04;;;;;;;9.15;4.00;;;;;24.20;96091.00;;;;8323207;28;20331;-68
2022/04/12 16:26:07;;;;;;;4.05;3.08;;;;;24.10;96096.00;;;;8329379;28;20225;-69
2022/04/12 16:30:11;;;;;;;2.88;2.55;;;;;24.00;96102.00;;;;8317614;28;20240;-68
2022/04/12 16:34:15;;;;;;;3.45;2.30;;;;;24.00;96101.00;;;;8312684;28;20229;-68
2022/04/12 16:38:19;;;;;;;9.02;3.70;;;;;24.00;96093.00;;;;8304095;28;20256;-70
2022/04/12 16:42:23;;;;;;;3.65;2.92;;;;;24.10;96096.00;;;;8294191;28;20249;-70
2022/04/12 16:46:26;;;;;;;4.15;2.17;;;;;23.90;96093.00;;;;8317275;28;20236;-69
2022/04/12 16:50:30;;;;;;;2.53;2.30;;;;;23.70;96099.00;;;;8320326;28;20255;-68
2022/04/12 16:54:34;;;;;;;5.22;2.28;;;;;23.40;96097.00;;;;8315693;28;20316;-70
2022/04/12 16:58:38;;;;;;;4.63;2.55;;;;;23.20;96093.00;;;;8315383;28;20312;-69
2022/04/12 17:02:43;;;;;;;3.65;2.10;;;;;23.00;96098.00;;;;8316928;28;20228;-71
2022/04/12 17:06:47;;;;;;;4.90;2.83;;;;;22.70;96101.00;;;;8327217;28;20221;-70
2022/04/12 17:10:51;;;;;;;4.60;2.45;;;;;22.30;96090.00;;;;8335676;28;20320;-71
2022/04/12 17:14:55;;;;;;;4.82;3.03;;;;;21.90;96093.00;;;;8319153;28;20233;-71
2022/04/12 17:18:58;;;;;;;3.03;2.72;;;;;21.60;96092.00;;;;8325225;28;21038;-71
2022/04/12 17:23:02;;;;;;;5.53;3.25;;;;;21.20;96094.00;;;;8342998;28;20241;-70
2022/04/12 17:27:07;;;;;;;9.05;4.53;;;;;20.80;96089.00;;;;8324713;28;20671;-71
2022/04/12 17:31:10;;;;;;;9.93;4.15;;;;;20.40;96081.00;;;;8320905;28;21070;-71
2022/04/12 17:35:14;;;;;;;7.47;3.47;;;;;19.80;96096.00;;;;8316645;28;20625;-71
2022/04/12 17:39:17;;;;;;;5.50;3.17;;;;;19.10;96095.00;;;;8318794;28;20260;-70
2022/04/12 17:43:22;;;;;;;4.88;2.17;;;;;18.40;96096.00;;;;8323214;28;20593;-70
2022/04/12 17:47:25;;;;;;;3.58;2.85;;;;;17.70;96090.00;;;;8317034;28;20236;-70
2022/04/12 17:51:28;;;;;;;5.47;2.78;;;;;17.10;96090.00;;;;8318418;28;20257;-72
2022/04/12 17:55:35;;;;;;;4.47;2.10;;;;;16.60;96085.00;;;;8318859;28;20229;-70
2022/04/12 17:59:39;;;;;;;4.40;2.40;;;;;16.00;96083.00;;;;8322465;28;20242;-70
2022/04/12 18:03:44;;;;;;;13.70;2.55;;;;;15.50;96094.00;;;;8320514;28;20221;-69
2022/04/12 18:07:52;;;;;;;3.47;2.53;;;;;15.10;96085.00;;;;8320015;28;20224;-70
2022/04/12 18:11:55;;;;;;;7.20;2.22;;;;;14.70;96098.00;;;;8318026;28;20247;-71
2022/04/12 18:16:00;;;;;;;5.78;2.17;;;;;14.50;96100.00;;;;8316953;28;20262;-70
2022/04/12 18:20:05;;;;;;;5.05;2.50;;;;;14.30;96106.00;;;;8326705;28;20237;-71
2022/04/12 18:24:09;;;;;;;2.65;2.28;;;;;14.00;96099.00;;;;8325857;28;20232;-70
2022/04/12 18:28:12;;;;;;;2.70;1.90;;;;;14.00;96103.00;;;;8315316;28;20236;-70
2022/04/12 18:32:17;;;;;;;2.88;1.80;;;;;14.20;96105.00;;;;8312581;28;20647;-69
2022/04/12 18:36:20;;;;;;;4.70;2.15;;;;;14.50;96106.00;;;;8317892;28;20232;-68
2022/04/12 18:40:24;;;;;;;7.55;2.10;;;;;14.70;96113.00;;;;8313455;28;20235;-68
2022/04/12 18:44:27;;;;;;;4.57;2.30;;;;;14.70;96116.00;;;;8322962;28;20311;-69
2022/04/12 18:48:34;;;;;;;6.65;2.97;;;;;14.70;96125.00;;;;8304576;28;20228;-68
2022/04/12 18:52:38;;;;;;;15.57;3.92;;;;;14.60;96125.00;;;;8313666;28;20313;-69
2022/04/12 18:56:41;;;;;;;9.13;2.95;;;;;14.40;96134.00;;;;8316093;28;20582;-70
2022/04/12 19:00:45;;;;;;;6.75;3.20;;;;;14.20;96133.00;;;;8322706;28;20312;-69
2022/04/12 19:04:51;;;;;;;5.50;2.70;;;;;14.20;96136.00;;;;8309601;28;20266;-70
2022/04/12 19:08:56;;;;;;;4.50;3.10;;;;;13.90;96140.00;;;;8315827;28;20278;-72
2022/04/12 19:13:01;;;;;;;5.07;3.45;;;;;13.70;96137.00;;;;8322011;28;20231;-71
2022/04/12 19:17:06;;;;;;;4.45;3.40;;;;;13.60;96137.00;;;;8314713;28;20236;-67
2022/04/12 19:21:13;;;;;;;3.47;3.17;;;;;13.70;96142.00;;;;8324033;28;20251;-67
2022/04/12 19:25:22;;;;;;;3.60;2.75;;;;;13.70;96139.00;;;;8323075;28;20263;-66
2022/04/12 19:29:29;;;;;;;7.35;3.13;;;;;13.70;96134.00;;;;8298009;28;20221;-67
2022/04/12 19:33:34;;;;;;;5.60;2.60;;;;;13.60;96135.00;;;;8324803;28;20229;-71
2022/04/12 19:37:43;;;;;;;2.90;2.50;;;;;13.50;96131.00;;;;8319192;28;20284;-71
2022/04/12 19:41:48;;;;;;;6.43;2.58;;;;;13.30;96145.00;;;;8321388;28;20373;-71
2022/04/12 19:45:56;;;;;;;4.32;3.20;;;;;13.10;96133.00;;;;8322017;28;20241;-71
2022/04/12 19:50:00;;;;;;;3.65;2.80;;;;;12.80;96136.00;;;;8321082;28;20244;-72
2022/04/12 19:54:07;;;;;;;3.42;2.55;;;;;12.70;96140.00;;;;8317621;28;20241;-70
2022/04/12 19:58:11;;;;;;;3.80;2.35;;;;;12.50;96137.00;;;;8322854;28;20250;-70
2022/04/12 20:02:18;;;;;;;4.53;2.38;;;;;12.30;96141.00;;;;8315804;28;20234;-71
2022/04/12 20:06:22;;;;;;;3.25;2.85;;;;;12.20;96126.00;;;;8320574;28;20227;-70
2022/04/12 20:10:28;;;;;;;4.32;2.70;;;;;12.10;96134.00;;;;8319248;28;20239;-71
2022/04/12 20:14:34;;;;;;;5.78;2.65;;;;;12.00;96127.00;;;;8320188;28;20234;-71
2022/04/12 20:18:39;;;;;;;6.27;3.00;;;;;11.90;96130.00;;;;8318104;28;20263;-72
2022/04/12 20:22:44;;;;;;;7.38;2.90;;;;;11.70;96139.00;;;;8322684;28;20221;-71
2022/04/12 20:26:51;;;;;;;3.55;3.05;;;;;11.50;96138.00;;;;8319981;28;20642;-71